sensor_id;sensor_type;location;lat;lon;timestamp;temperature;humidity
49861;DHT22;35761;48.826;9.238;2022-11-15T00:02:40;9.90;51.30
49861;DHT22;35761;48.826;9.238;2022-11-15T00:05:26;9.90;51.40
49861;DHT22;35761;48.826;9.238;2022-11-15T00:08:14;9.90;51.60
49861;DHT22;35761;48.826;9.238;2022-11-15T00:11:03;9.90;51.60
49861;DHT22;35761;48.826;9.238;2022-11-15T00:13:50;9.90;51.10
49861;DHT22;35761;48.826;9.238;2022-11-15T00:16:37;9.90;51.30
49861;DHT22;35761;48.826;9.238;2022-11-15T00:19:24;9.90;51.10
49861;DHT22;35761;48.826;9.238;2022-11-15T00:22:11;9.90;51.40
49861;DHT22;35761;48.826;9.238;2022-11-15T00:24:58;9.90;51.20
49861;DHT22;35761;48.826;9.238;2022-11-15T00:27:46;9.90;50.90
49861;DHT22;35761;48.826;9.238;2022-11-15T00:30:34;9.90;50.00
49861;DHT22;35761;48.826;9.238;2022-11-15T00:33:21;9.90;50.00
49861;DHT22;35761;48.826;9.238;2022-11-15T00:36:09;10.00;49.80
49861;DHT22;35761;48.826;9.238;2022-11-15T00:38:57;9.90;49.80
49861;DHT22;35761;48.826;9.238;2022-11-15T00:41:43;10.00;49.70
49861;DHT22;35761;48.826;9.238;2022-11-15T00:44:31;9.90;50.10
49861;DHT22;35761;48.826;9.238;2022-11-15T00:47:18;9.90;50.30
49861;DHT22;35761;48.826;9.238;2022-11-15T00:50:06;9.90;50.40
49861;DHT22;35761;48.826;9.238;2022-11-15T00:52:59;9.90;50.30
49861;DHT22;35761;48.826;9.238;2022-11-15T00:55:46;9.90;50.20
49861;DHT22;35761;48.826;9.238;2022-11-15T00:58:33;9.90;50.30
49861;DHT22;35761;48.826;9.238;2022-11-15T01:01:22;9.90;50.50
49861;DHT22;35761;48.826;9.238;2022-11-15T01:04:09;9.90;50.40
49861;DHT22;35761;48.826;9.238;2022-11-15T01:06:56;9.90;50.20
49861;DHT22;35761;48.826;9.238;2022-11-15T01:09:43;9.90;50.20
49861;DHT22;35761;48.826;9.238;2022-11-15T01:12:30;9.90;50.20
49861;DHT22;35761;48.826;9.238;2022-11-15T01:15:17;9.90;50.40
49861;DHT22;35761;48.826;9.238;2022-11-15T01:18:06;9.80;50.20
49861;DHT22;35761;48.826;9.238;2022-11-15T01:20:53;9.80;50.30
49861;DHT22;35761;48.826;9.238;2022-11-15T01:23:39;9.80;50.50
49861;DHT22;35761;48.826;9.238;2022-11-15T01:26:27;9.80;50.80
49861;DHT22;35761;48.826;9.238;2022-11-15T01:29:14;9.80;51.20
49861;DHT22;35761;48.826;9.238;2022-11-15T01:32:01;9.70;51.40
49861;DHT22;35761;48.826;9.238;2022-11-15T01:34:50;9.70;51.40
49861;DHT22;35761;48.826;9.238;2022-11-15T01:37:36;9.70;51.50
49861;DHT22;35761;48.826;9.238;2022-11-15T01:40:23;9.70;51.30
49861;DHT22;35761;48.826;9.238;2022-11-15T01:43:21;9.70;51.10
49861;DHT22;35761;48.826;9.238;2022-11-15T01:46:23;9.70;50.60
49861;DHT22;35761;48.826;9.238;2022-11-15T01:49:16;9.70;50.60
49861;DHT22;35761;48.826;9.238;2022-11-15T01:52:08;9.70;50.70
49861;DHT22;35761;48.826;9.238;2022-11-15T01:55:02;9.60;50.60
49861;DHT22;35761;48.826;9.238;2022-11-15T01:57:55;9.60;50.90
49861;DHT22;35761;48.826;9.238;2022-11-15T02:00:43;9.50;51.50
49861;DHT22;35761;48.826;9.238;2022-11-15T02:03:36;9.50;52.00
49861;DHT22;35761;48.826;9.238;2022-11-15T02:06:28;9.40;52.30
49861;DHT22;35761;48.826;9.238;2022-11-15T02:09:17;9.40;52.70
49861;DHT22;35761;48.826;9.238;2022-11-15T02:12:06;9.30;53.00
49861;DHT22;35761;48.826;9.238;2022-11-15T02:14:54;9.30;53.50
49861;DHT22;35761;48.826;9.238;2022-11-15T02:17:59;9.20;53.90
49861;DHT22;35761;48.826;9.238;2022-11-15T02:21:06;9.20;54.10
49861;DHT22;35761;48.826;9.238;2022-11-15T02:28:10;9.20;54.40
49861;DHT22;35761;48.826;9.238;2022-11-15T02:31:07;9.10;54.60
49861;DHT22;35761;48.826;9.238;2022-11-15T02:34:05;9.10;54.50
49861;DHT22;35761;48.826;9.238;2022-11-15T02:37:02;9.10;54.40
49861;DHT22;35761;48.826;9.238;2022-11-15T02:39:59;9.10;54.30
49861;DHT22;35761;48.826;9.238;2022-11-15T02:42:54;9.10;54.30
49861;DHT22;35761;48.826;9.238;2022-11-15T02:46:06;9.10;54.50
49861;DHT22;35761;48.826;9.238;2022-11-15T02:48:55;9.10;54.40
49861;DHT22;35761;48.826;9.238;2022-11-15T02:51:44;9.10;54.50
49861;DHT22;35761;48.826;9.238;2022-11-15T02:54:34;9.10;54.60
49861;DHT22;35761;48.826;9.238;2022-11-15T02:57:30;9.10;54.50
49861;DHT22;35761;48.826;9.238;2022-11-15T03:00:27;9.10;54.60
49861;DHT22;35761;48.826;9.238;2022-11-15T03:03:35;9.10;54.60
49861;DHT22;35761;48.826;9.238;2022-11-15T03:06:36;9.10;54.60
49861;DHT22;35761;48.826;9.238;2022-11-15T03:09:33;9.10;54.10
49861;DHT22;35761;48.826;9.238;2022-11-15T03:12:27;9.10;54.00
49861;DHT22;35761;48.826;9.238;2022-11-15T03:15:21;9.10;54.10
49861;DHT22;35761;48.826;9.238;2022-11-15T03:18:15;9.10;54.20
49861;DHT22;35761;48.826;9.238;2022-11-15T03:21:09;9.10;54.40
49861;DHT22;35761;48.826;9.238;2022-11-15T03:24:01;9.00;54.60
49861;DHT22;35761;48.826;9.238;2022-11-15T03:26:52;9.00;54.90
49861;DHT22;35761;48.826;9.238;2022-11-15T03:29:42;9.00;55.20
49861;DHT22;35761;48.826;9.238;2022-11-15T03:32:34;9.00;55.40
49861;DHT22;35761;48.826;9.238;2022-11-15T03:35:24;9.00;55.60
49861;DHT22;35761;48.826;9.238;2022-11-15T03:38:17;8.90;55.90
49861;DHT22;35761;48.826;9.238;2022-11-15T03:41:12;8.90;56.10
49861;DHT22;35761;48.826;9.238;2022-11-15T03:44:07;8.90;56.50
49861;DHT22;35761;48.826;9.238;2022-11-15T03:47:02;8.80;56.80
49861;DHT22;35761;48.826;9.238;2022-11-15T03:49:52;8.70;58.10
49861;DHT22;35761;48.826;9.238;2022-11-15T03:52:45;8.70;57.70
49861;DHT22;35761;48.826;9.238;2022-11-15T03:55:34;8.70;58.10
49861;DHT22;35761;48.826;9.238;2022-11-15T03:58:21;8.60;58.30
49861;DHT22;35761;48.826;9.238;2022-11-15T04:01:08;8.60;58.40
49861;DHT22;35761;48.826;9.238;2022-11-15T04:03:55;8.70;58.20
49861;DHT22;35761;48.826;9.238;2022-11-15T04:06:43;8.70;58.00
49861;DHT22;35761;48.826;9.238;2022-11-15T04:09:30;8.60;57.80
49861;DHT22;35761;48.826;9.238;2022-11-15T04:12:18;8.60;58.00
49861;DHT22;35761;48.826;9.238;2022-11-15T04:15:18;8.60;58.20
49861;DHT22;35761;48.826;9.238;2022-11-15T04:18:07;8.60;58.70
49861;DHT22;35761;48.826;9.238;2022-11-15T04:20:53;8.60;59.00
49861;DHT22;35761;48.826;9.238;2022-11-15T04:24:06;8.50;59.30
49861;DHT22;35761;48.826;9.238;2022-11-15T04:26:59;8.50;59.70
49861;DHT22;35761;48.826;9.238;2022-11-15T04:29:47;8.40;60.10
49861;DHT22;35761;48.826;9.238;2022-11-15T04:32:34;8.40;60.30
49861;DHT22;35761;48.826;9.238;2022-11-15T04:35:21;8.40;60.50
49861;DHT22;35761;48.826;9.238;2022-11-15T04:38:09;8.40;60.70
49861;DHT22;35761;48.826;9.238;2022-11-15T04:40:57;8.30;61.00
49861;DHT22;35761;48.826;9.238;2022-11-15T04:43:44;8.30;61.50
49861;DHT22;35761;48.826;9.238;2022-11-15T04:46:32;8.20;61.70
49861;DHT22;35761;48.826;9.238;2022-11-15T04:49:19;8.20;61.90
49861;DHT22;35761;48.826;9.238;2022-11-15T04:52:06;8.20;62.00
49861;DHT22;35761;48.826;9.238;2022-11-15T04:54:53;8.30;62.30
49861;DHT22;35761;48.826;9.238;2022-11-15T04:57:41;8.20;62.30
49861;DHT22;35761;48.826;9.238;2022-11-15T05:00:29;8.20;63.20
49861;DHT22;35761;48.826;9.238;2022-11-15T05:03:18;8.20;62.90
49861;DHT22;35761;48.826;9.238;2022-11-15T05:06:23;8.20;62.70
49861;DHT22;35761;48.826;9.238;2022-11-15T05:09:10;8.20;62.40
49861;DHT22;35761;48.826;9.238;2022-11-15T05:11:58;8.20;62.40
49861;DHT22;35761;48.826;9.238;2022-11-15T05:14:45;8.20;62.40
49861;DHT22;35761;48.826;9.238;2022-11-15T05:17:33;8.20;62.30
49861;DHT22;35761;48.826;9.238;2022-11-15T05:20:21;8.20;62.00
49861;DHT22;35761;48.826;9.238;2022-11-15T05:23:08;8.20;61.70
49861;DHT22;35761;48.826;9.238;2022-11-15T05:25:58;8.20;61.50
49861;DHT22;35761;48.826;9.238;2022-11-15T05:28:54;8.30;61.00
49861;DHT22;35761;48.826;9.238;2022-11-15T05:31:41;8.30;60.50
49861;DHT22;35761;48.826;9.238;2022-11-15T05:34:28;8.30;60.50
49861;DHT22;35761;48.826;9.238;2022-11-15T05:37:16;8.30;60.70
49861;DHT22;35761;48.826;9.238;2022-11-15T05:40:05;8.30;60.50
49861;DHT22;35761;48.826;9.238;2022-11-15T05:42:52;8.30;60.60
49861;DHT22;35761;48.826;9.238;2022-11-15T05:45:40;8.30;60.70
49861;DHT22;35761;48.826;9.238;2022-11-15T05:48:27;8.30;60.60
49861;DHT22;35761;48.826;9.238;2022-11-15T05:51:15;8.30;60.10
49861;DHT22;35761;48.826;9.238;2022-11-15T05:54:04;8.30;59.80
49861;DHT22;35761;48.826;9.238;2022-11-15T05:56:51;8.30;59.60
49861;DHT22;35761;48.826;9.238;2022-11-15T05:59:39;8.40;59.80
49861;DHT22;35761;48.826;9.238;2022-11-15T06:02:27;8.30;59.60
49861;DHT22;35761;48.826;9.238;2022-11-15T06:05:14;8.30;59.50
49861;DHT22;35761;48.826;9.238;2022-11-15T06:08:01;8.30;59.50
49861;DHT22;35761;48.826;9.238;2022-11-15T06:10:49;8.30;59.80
49861;DHT22;35761;48.826;9.238;2022-11-15T06:13:36;8.20;59.80
49861;DHT22;35761;48.826;9.238;2022-11-15T06:16:23;8.10;60.40
49861;DHT22;35761;48.826;9.238;2022-11-15T06:19:10;8.10;60.90
49861;DHT22;35761;48.826;9.238;2022-11-15T06:21:57;8.10;61.50
49861;DHT22;35761;48.826;9.238;2022-11-15T06:24:44;8.00;61.50
49861;DHT22;35761;48.826;9.238;2022-11-15T06:27:32;8.00;61.20
49861;DHT22;35761;48.826;9.238;2022-11-15T06:30:19;8.00;61.40
49861;DHT22;35761;48.826;9.238;2022-11-15T06:33:07;8.00;61.30
49861;DHT22;35761;48.826;9.238;2022-11-15T06:35:55;8.00;61.70
49861;DHT22;35761;48.826;9.238;2022-11-15T06:38:42;8.00;61.60
49861;DHT22;35761;48.826;9.238;2022-11-15T06:41:29;8.00;61.80
49861;DHT22;35761;48.826;9.238;2022-11-15T06:44:17;8.00;61.60
49861;DHT22;35761;48.826;9.238;2022-11-15T06:47:04;8.00;61.70
49861;DHT22;35761;48.826;9.238;2022-11-15T06:49:51;8.00;61.70
49861;DHT22;35761;48.826;9.238;2022-11-15T06:52:38;8.00;61.50
49861;DHT22;35761;48.826;9.238;2022-11-15T06:55:25;8.00;61.20
49861;DHT22;35761;48.826;9.238;2022-11-15T06:58:13;8.00;60.60
49861;DHT22;35761;48.826;9.238;2022-11-15T07:01:03;8.00;60.20
49861;DHT22;35761;48.826;9.238;2022-11-15T07:03:50;8.10;60.40
49861;DHT22;35761;48.826;9.238;2022-11-15T07:06:37;8.10;59.70
49861;DHT22;35761;48.826;9.238;2022-11-15T07:09:25;8.00;59.40
49861;DHT22;35761;48.826;9.238;2022-11-15T07:12:12;8.00;59.50
49861;DHT22;35761;48.826;9.238;2022-11-15T07:14:59;8.00;59.70
49861;DHT22;35761;48.826;9.238;2022-11-15T07:17:48;8.00;59.40
49861;DHT22;35761;48.826;9.238;2022-11-15T07:20:35;8.00;59.10
49861;DHT22;35761;48.826;9.238;2022-11-15T07:23:22;8.10;59.10
49861;DHT22;35761;48.826;9.238;2022-11-15T07:26:09;8.10;59.00
49861;DHT22;35761;48.826;9.238;2022-11-15T07:28:57;8.10;58.80
49861;DHT22;35761;48.826;9.238;2022-11-15T07:31:44;8.10;58.70
49861;DHT22;35761;48.826;9.238;2022-11-15T07:34:32;8.20;58.60
49861;DHT22;35761;48.826;9.238;2022-11-15T07:37:19;8.20;58.50
49861;DHT22;35761;48.826;9.238;2022-11-15T07:40:07;8.20;58.70
49861;DHT22;35761;48.826;9.238;2022-11-15T07:42:59;8.30;58.50
49861;DHT22;35761;48.826;9.238;2022-11-15T07:45:46;8.40;58.20
49861;DHT22;35761;48.826;9.238;2022-11-15T07:48:34;8.40;58.10
49861;DHT22;35761;48.826;9.238;2022-11-15T07:51:31;8.50;60.20
49861;DHT22;35761;48.826;9.238;2022-11-15T07:54:18;8.60;60.00
49861;DHT22;35761;48.826;9.238;2022-11-15T07:57:05;8.70;59.90
49861;DHT22;35761;48.826;9.238;2022-11-15T07:59:54;8.80;60.20
49861;DHT22;35761;48.826;9.238;2022-11-15T08:02:42;8.90;58.00
49861;DHT22;35761;48.826;9.238;2022-11-15T08:05:29;8.90;56.40
49861;DHT22;35761;48.826;9.238;2022-11-15T08:08:17;9.00;55.30
49861;DHT22;35761;48.826;9.238;2022-11-15T08:11:05;9.00;55.20
49861;DHT22;35761;48.826;9.238;2022-11-15T08:13:51;9.00;54.90
49861;DHT22;35761;48.826;9.238;2022-11-15T08:16:39;9.10;53.90
49861;DHT22;35761;48.826;9.238;2022-11-15T08:19:25;9.10;53.90
49861;DHT22;35761;48.826;9.238;2022-11-15T08:22:13;9.00;55.00
49861;DHT22;35761;48.826;9.238;2022-11-15T08:25:01;9.10;55.50
49861;DHT22;35761;48.826;9.238;2022-11-15T08:27:51;9.10;55.40
49861;DHT22;35761;48.826;9.238;2022-11-15T08:30:41;9.20;55.50
49861;DHT22;35761;48.826;9.238;2022-11-15T08:33:31;9.20;55.10
49861;DHT22;35761;48.826;9.238;2022-11-15T08:36:19;9.20;55.20
49861;DHT22;35761;48.826;9.238;2022-11-15T08:39:10;9.20;55.20
49861;DHT22;35761;48.826;9.238;2022-11-15T08:41:58;9.20;55.10
49861;DHT22;35761;48.826;9.238;2022-11-15T08:44:46;9.20;55.50
49861;DHT22;35761;48.826;9.238;2022-11-15T08:47:32;9.30;54.20
49861;DHT22;35761;48.826;9.238;2022-11-15T08:50:19;9.40;54.70
49861;DHT22;35761;48.826;9.238;2022-11-15T08:53:07;9.40;55.10
49861;DHT22;35761;48.826;9.238;2022-11-15T08:55:55;9.50;54.80
49861;DHT22;35761;48.826;9.238;2022-11-15T08:58:43;9.60;54.90
49861;DHT22;35761;48.826;9.238;2022-11-15T09:01:30;9.60;55.50
49861;DHT22;35761;48.826;9.238;2022-11-15T09:04:18;9.70;54.90
49861;DHT22;35761;48.826;9.238;2022-11-15T09:07:05;9.70;54.60
49861;DHT22;35761;48.826;9.238;2022-11-15T09:09:52;9.80;55.10
49861;DHT22;35761;48.826;9.238;2022-11-15T09:12:39;9.80;53.60
49861;DHT22;35761;48.826;9.238;2022-11-15T09:15:30;9.90;55.60
49861;DHT22;35761;48.826;9.238;2022-11-15T09:18:17;9.90;58.10
49861;DHT22;35761;48.826;9.238;2022-11-15T09:21:08;9.90;58.90
49861;DHT22;35761;48.826;9.238;2022-11-15T09:23:56;10.00;57.50
49861;DHT22;35761;48.826;9.238;2022-11-15T09:26:44;10.10;54.20
49861;DHT22;35761;48.826;9.238;2022-11-15T09:29:31;10.30;52.70
49861;DHT22;35761;48.826;9.238;2022-11-15T09:32:19;10.50;50.60
49861;DHT22;35761;48.826;9.238;2022-11-15T09:35:07;10.70;47.60
49861;DHT22;35761;48.826;9.238;2022-11-15T09:37:54;10.80;48.40
49861;DHT22;35761;48.826;9.238;2022-11-15T09:40:41;10.80;47.90
49861;DHT22;35761;48.826;9.238;2022-11-15T09:43:37;10.90;46.80
49861;DHT22;35761;48.826;9.238;2022-11-15T09:46:36;10.90;47.70
49861;DHT22;35761;48.826;9.238;2022-11-15T09:49:21;11.00;44.10
49861;DHT22;35761;48.826;9.238;2022-11-15T09:52:11;11.10;45.40
49861;DHT22;35761;48.826;9.238;2022-11-15T09:54:47;11.20;45.10
49861;DHT22;35761;48.826;9.238;2022-11-15T09:57:29;11.30;43.10
49861;DHT22;35761;48.826;9.238;2022-11-15T10:00:06;11.40;43.20
49861;DHT22;35761;48.826;9.238;2022-11-15T10:03:08;11.50;42.90
49861;DHT22;35761;48.826;9.238;2022-11-15T10:05:42;11.50;43.30
49861;DHT22;35761;48.826;9.238;2022-11-15T10:08:24;11.60;41.80
49861;DHT22;35761;48.826;9.238;2022-11-15T10:11:02;11.70;41.40
49861;DHT22;35761;48.826;9.238;2022-11-15T10:13:54;11.70;43.60
49861;DHT22;35761;48.826;9.238;2022-11-15T10:16:37;11.70;41.40
49861;DHT22;35761;48.826;9.238;2022-11-15T10:19:28;11.70;42.60
49861;DHT22;35761;48.826;9.238;2022-11-15T10:22:18;11.70;42.80
49861;DHT22;35761;48.826;9.238;2022-11-15T10:25:00;11.60;43.30
49861;DHT22;35761;48.826;9.238;2022-11-15T10:27:40;11.70;42.00
49861;DHT22;35761;48.826;9.238;2022-11-15T10:30:12;11.80;40.90
49861;DHT22;35761;48.826;9.238;2022-11-15T10:32:43;11.80;40.50
49861;DHT22;35761;48.826;9.238;2022-11-15T10:35:21;11.80;40.30
49861;DHT22;35761;48.826;9.238;2022-11-15T10:38:04;11.90;41.00
49861;DHT22;35761;48.826;9.238;2022-11-15T10:40:35;11.90;41.40
49861;DHT22;35761;48.826;9.238;2022-11-15T10:43:12;11.80;42.40
49861;DHT22;35761;48.826;9.238;2022-11-15T10:45:44;11.90;42.30
49861;DHT22;35761;48.826;9.238;2022-11-15T10:48:24;11.90;42.50
49861;DHT22;35761;48.826;9.238;2022-11-15T10:50:53;11.90;42.60
49861;DHT22;35761;48.826;9.238;2022-11-15T10:53:29;11.90;43.50
49861;DHT22;35761;48.826;9.238;2022-11-15T10:56:02;11.80;44.60
49861;DHT22;35761;48.826;9.238;2022-11-15T10:58:37;11.80;43.30
49861;DHT22;35761;48.826;9.238;2022-11-15T11:01:12;11.90;42.60
49861;DHT22;35761;48.826;9.238;2022-11-15T11:03:44;11.90;42.30
49861;DHT22;35761;48.826;9.238;2022-11-15T11:06:15;11.90;42.00
49861;DHT22;35761;48.826;9.238;2022-11-15T11:08:57;12.00;41.00
49861;DHT22;35761;48.826;9.238;2022-11-15T11:11:44;12.00;42.70
49861;DHT22;35761;48.826;9.238;2022-11-15T11:14:20;12.00;42.30
49861;DHT22;35761;48.826;9.238;2022-11-15T11:16:52;11.90;44.00
49861;DHT22;35761;48.826;9.238;2022-11-15T11:19:39;12.00;43.50
49861;DHT22;35761;48.826;9.238;2022-11-15T11:22:20;12.00;42.80
49861;DHT22;35761;48.826;9.238;2022-11-15T11:25:02;12.00;42.70
49861;DHT22;35761;48.826;9.238;2022-11-15T11:27:43;12.00;42.90
49861;DHT22;35761;48.826;9.238;2022-11-15T11:30:41;12.00;42.90
49861;DHT22;35761;48.826;9.238;2022-11-15T11:33:16;12.10;43.10
49861;DHT22;35761;48.826;9.238;2022-11-15T11:35:55;12.10;43.70
49861;DHT22;35761;48.826;9.238;2022-11-15T11:38:39;12.00;44.90
49861;DHT22;35761;48.826;9.238;2022-11-15T11:41:27;12.10;45.40
49861;DHT22;35761;48.826;9.238;2022-11-15T11:44:16;12.10;45.10
49861;DHT22;35761;48.826;9.238;2022-11-15T11:46:56;12.10;44.00
49861;DHT22;35761;48.826;9.238;2022-11-15T11:49:36;12.10;45.00
49861;DHT22;35761;48.826;9.238;2022-11-15T11:52:13;12.20;45.00
49861;DHT22;35761;48.826;9.238;2022-11-15T11:54:53;12.20;45.70
49861;DHT22;35761;48.826;9.238;2022-11-15T11:57:34;12.20;47.40
49861;DHT22;35761;48.826;9.238;2022-11-15T12:00:16;12.20;48.10
49861;DHT22;35761;48.826;9.238;2022-11-15T12:02:52;12.30;48.90
49861;DHT22;35761;48.826;9.238;2022-11-15T12:05:34;12.30;49.10
49861;DHT22;35761;48.826;9.238;2022-11-15T12:08:23;12.30;47.80
49861;DHT22;35761;48.826;9.238;2022-11-15T12:11:01;12.40;47.20
49861;DHT22;35761;48.826;9.238;2022-11-15T12:13:36;12.40;47.40
49861;DHT22;35761;48.826;9.238;2022-11-15T12:16:11;12.50;47.80
49861;DHT22;35761;48.826;9.238;2022-11-15T12:18:46;12.50;48.40
49861;DHT22;35761;48.826;9.238;2022-11-15T12:21:21;12.60;46.70
49861;DHT22;35761;48.826;9.238;2022-11-15T12:23:59;12.60;46.40
49861;DHT22;35761;48.826;9.238;2022-11-15T12:26:33;12.70;46.60
49861;DHT22;35761;48.826;9.238;2022-11-15T12:29:11;12.70;46.30
49861;DHT22;35761;48.826;9.238;2022-11-15T12:31:45;12.70;46.60
49861;DHT22;35761;48.826;9.238;2022-11-15T12:34:38;12.70;45.90
49861;DHT22;35761;48.826;9.238;2022-11-15T12:37:33;12.70;45.30
49861;DHT22;35761;48.826;9.238;2022-11-15T12:46:22;12.80;45.30
49861;DHT22;35761;48.826;9.238;2022-11-15T12:49:09;12.70;46.20
49861;DHT22;35761;48.826;9.238;2022-11-15T12:52:03;12.80;46.10
49861;DHT22;35761;48.826;9.238;2022-11-15T12:55:01;12.80;45.90
49861;DHT22;35761;48.826;9.238;2022-11-15T12:57:41;12.80;45.90
49861;DHT22;35761;48.826;9.238;2022-11-15T13:00:38;12.80;45.40
49861;DHT22;35761;48.826;9.238;2022-11-15T13:03:19;12.80;45.80
49861;DHT22;35761;48.826;9.238;2022-11-15T13:06:07;12.80;44.50
49861;DHT22;35761;48.826;9.238;2022-11-15T13:08:46;12.90;45.90
49861;DHT22;35761;48.826;9.238;2022-11-15T13:11:53;12.90;45.90
49861;DHT22;35761;48.826;9.238;2022-11-15T13:14:41;12.90;44.70
49861;DHT22;35761;48.826;9.238;2022-11-15T13:17:32;12.90;45.20
49861;DHT22;35761;48.826;9.238;2022-11-15T13:20:22;12.90;44.90
49861;DHT22;35761;48.826;9.238;2022-11-15T13:22:53;12.90;44.10
49861;DHT22;35761;48.826;9.238;2022-11-15T13:28:43;12.90;43.40
49861;DHT22;35761;48.826;9.238;2022-11-15T13:31:30;12.90;43.30
49861;DHT22;35761;48.826;9.238;2022-11-15T13:34:13;13.00;42.90
49861;DHT22;35761;48.826;9.238;2022-11-15T13:37:28;12.90;44.00
49861;DHT22;35761;48.826;9.238;2022-11-15T13:40:16;13.00;43.60
49861;DHT22;35761;48.826;9.238;2022-11-15T13:42:48;13.00;43.10
49861;DHT22;35761;48.826;9.238;2022-11-15T13:45:18;13.00;42.90
49861;DHT22;35761;48.826;9.238;2022-11-15T13:47:53;13.00;42.90
49861;DHT22;35761;48.826;9.238;2022-11-15T13:50:26;13.00;43.60
49861;DHT22;35761;48.826;9.238;2022-11-15T13:53:03;13.00;43.30
49861;DHT22;35761;48.826;9.238;2022-11-15T13:55:32;13.00;43.80
49861;DHT22;35761;48.826;9.238;2022-11-15T13:58:02;13.00;43.70
49861;DHT22;35761;48.826;9.238;2022-11-15T14:00:36;13.00;44.30
49861;DHT22;35761;48.826;9.238;2022-11-15T14:03:12;12.90;44.90
49861;DHT22;35761;48.826;9.238;2022-11-15T14:05:45;13.00;43.50
49861;DHT22;35761;48.826;9.238;2022-11-15T14:08:23;13.00;43.40
49861;DHT22;35761;48.826;9.238;2022-11-15T14:11:10;13.00;43.70
49861;DHT22;35761;48.826;9.238;2022-11-15T14:14:02;13.00;43.30
49861;DHT22;35761;48.826;9.238;2022-11-15T14:16:40;13.00;43.40
49861;DHT22;35761;48.826;9.238;2022-11-15T14:19:11;13.00;41.50
49861;DHT22;35761;48.826;9.238;2022-11-15T14:22:18;13.00;42.30
49861;DHT22;35761;48.826;9.238;2022-11-15T14:27:43;13.00;42.70
49861;DHT22;35761;48.826;9.238;2022-11-15T14:30:14;12.90;42.00
49861;DHT22;35761;48.826;9.238;2022-11-15T14:32:46;12.90;42.40
49861;DHT22;35761;48.826;9.238;2022-11-15T14:35:22;12.90;42.60
49861;DHT22;35761;48.826;9.238;2022-11-15T14:37:53;12.90;42.10
49861;DHT22;35761;48.826;9.238;2022-11-15T14:40:22;12.90;44.10
49861;DHT22;35761;48.826;9.238;2022-11-15T14:42:52;12.90;45.30
49861;DHT22;35761;48.826;9.238;2022-11-15T14:45:21;12.90;45.20
49861;DHT22;35761;48.826;9.238;2022-11-15T14:47:54;12.90;45.00
49861;DHT22;35761;48.826;9.238;2022-11-15T14:50:23;12.90;44.70
49861;DHT22;35761;48.826;9.238;2022-11-15T14:52:51;12.90;44.80
49861;DHT22;35761;48.826;9.238;2022-11-15T14:55:22;12.90;44.90
49861;DHT22;35761;48.826;9.238;2022-11-15T14:57:54;12.90;44.90
49861;DHT22;35761;48.826;9.238;2022-11-15T15:00:23;12.80;45.30
49861;DHT22;35761;48.826;9.238;2022-11-15T15:03:01;12.80;45.50
49861;DHT22;35761;48.826;9.238;2022-11-15T15:05:35;12.70;46.00
49861;DHT22;35761;48.826;9.238;2022-11-15T15:08:06;12.70;46.70
49861;DHT22;35761;48.826;9.238;2022-11-15T15:10:37;12.70;46.60
49861;DHT22;35761;48.826;9.238;2022-11-15T15:13:19;12.70;46.10
49861;DHT22;35761;48.826;9.238;2022-11-15T15:15:51;12.70;46.20
49861;DHT22;35761;48.826;9.238;2022-11-15T15:18:23;12.70;46.60
49861;DHT22;35761;48.826;9.238;2022-11-15T15:20:56;12.70;46.80
49861;DHT22;35761;48.826;9.238;2022-11-15T15:23:27;12.70;46.20
49861;DHT22;35761;48.826;9.238;2022-11-15T15:25:57;12.60;45.70
49861;DHT22;35761;48.826;9.238;2022-11-15T15:28:33;12.60;45.80
49861;DHT22;35761;48.826;9.238;2022-11-15T15:31:03;12.60;45.90
49861;DHT22;35761;48.826;9.238;2022-11-15T15:33:34;12.60;46.10
49861;DHT22;35761;48.826;9.238;2022-11-15T15:36:03;12.60;46.40
49861;DHT22;35761;48.826;9.238;2022-11-15T15:38:32;12.50;46.70
49861;DHT22;35761;48.826;9.238;2022-11-15T15:41:01;12.50;47.40
49861;DHT22;35761;48.826;9.238;2022-11-15T15:43:30;12.50;48.00
49861;DHT22;35761;48.826;9.238;2022-11-15T15:46:00;12.50;47.90
49861;DHT22;35761;48.826;9.238;2022-11-15T15:48:28;12.50;48.10
49861;DHT22;35761;48.826;9.238;2022-11-15T15:50:57;12.50;48.20
49861;DHT22;35761;48.826;9.238;2022-11-15T15:53:26;12.40;48.30
49861;DHT22;35761;48.826;9.238;2022-11-15T15:55:54;12.40;48.60
49861;DHT22;35761;48.826;9.238;2022-11-15T15:58:23;12.40;48.50
49861;DHT22;35761;48.826;9.238;2022-11-15T16:00:51;12.40;48.70
49861;DHT22;35761;48.826;9.238;2022-11-15T16:03:21;12.50;48.90
49861;DHT22;35761;48.826;9.238;2022-11-15T16:05:50;12.40;48.90
49861;DHT22;35761;48.826;9.238;2022-11-15T16:08:20;12.40;49.00
49861;DHT22;35761;48.826;9.238;2022-11-15T16:10:50;12.40;49.10
49861;DHT22;35761;48.826;9.238;2022-11-15T16:13:18;12.40;49.20
49861;DHT22;35761;48.826;9.238;2022-11-15T16:15:49;12.30;49.60
49861;DHT22;35761;48.826;9.238;2022-11-15T16:18:21;12.30;49.90
49861;DHT22;35761;48.826;9.238;2022-11-15T16:20:50;12.30;50.20
49861;DHT22;35761;48.826;9.238;2022-11-15T16:23:23;12.30;50.20
49861;DHT22;35761;48.826;9.238;2022-11-15T16:25:53;12.30;50.30
49861;DHT22;35761;48.826;9.238;2022-11-15T16:28:24;12.30;50.30
49861;DHT22;35761;48.826;9.238;2022-11-15T16:31:05;12.30;50.40
49861;DHT22;35761;48.826;9.238;2022-11-15T16:33:37;12.20;50.40
49861;DHT22;35761;48.826;9.238;2022-11-15T16:36:16;12.20;50.60
49861;DHT22;35761;48.826;9.238;2022-11-15T16:38:54;12.30;51.80
49861;DHT22;35761;48.826;9.238;2022-11-15T16:41:22;12.30;52.30
49861;DHT22;35761;48.826;9.238;2022-11-15T16:43:51;12.30;52.60
49861;DHT22;35761;48.826;9.238;2022-11-15T16:46:22;12.20;52.70
49861;DHT22;35761;48.826;9.238;2022-11-15T16:48:53;12.20;52.90
49861;DHT22;35761;48.826;9.238;2022-11-15T16:51:22;12.20;52.80
49861;DHT22;35761;48.826;9.238;2022-11-15T16:53:50;12.20;52.90
49861;DHT22;35761;48.826;9.238;2022-11-15T16:56:22;12.20;52.80
49861;DHT22;35761;48.826;9.238;2022-11-15T16:58:53;12.20;52.20
49861;DHT22;35761;48.826;9.238;2022-11-15T17:01:26;12.30;52.10
49861;DHT22;35761;48.826;9.238;2022-11-15T17:03:58;12.30;51.60
49861;DHT22;35761;48.826;9.238;2022-11-15T17:06:39;12.20;52.00
49861;DHT22;35761;48.826;9.238;2022-11-15T17:09:10;12.20;52.10
49861;DHT22;35761;48.826;9.238;2022-11-15T17:11:40;12.20;52.20
49861;DHT22;35761;48.826;9.238;2022-11-15T17:14:10;12.20;52.10
49861;DHT22;35761;48.826;9.238;2022-11-15T17:16:39;12.20;51.80
49861;DHT22;35761;48.826;9.238;2022-11-15T17:19:16;12.20;50.80
49861;DHT22;35761;48.826;9.238;2022-11-15T17:21:46;12.20;50.70
49861;DHT22;35761;48.826;9.238;2022-11-15T17:24:16;12.20;50.60
49861;DHT22;35761;48.826;9.238;2022-11-15T17:26:47;12.20;50.80
49861;DHT22;35761;48.826;9.238;2022-11-15T17:29:15;12.20;51.20
49861;DHT22;35761;48.826;9.238;2022-11-15T17:31:44;12.20;51.20
49861;DHT22;35761;48.826;9.238;2022-11-15T17:34:14;12.20;50.30
49861;DHT22;35761;48.826;9.238;2022-11-15T17:36:42;12.20;49.40
49861;DHT22;35761;48.826;9.238;2022-11-15T17:39:11;12.20;49.10